Time;durP1;ratioP1;P1;durP2;ratioP2;P2;SDS_P1;SDS_P2;PMS_P1;PMS_P2;Temp;Humidity;BMP_temperature;BMP_pressure;BME280_temperature;BME280_humidity;BME280_pressure;Samples;Min_cycle;Max_cycle;Signal;HPM_P1;HPM_P2
2022/06/20 00:01:01;;;;;;;11.68;5.95;;;;;;;25.50;57.10;98202.59;4955883;28;20052;-62
2022/06/20 00:03:30;;;;;;;11.15;5.30;;;;;;;25.90;56.62;98243.97;4932743;28;20027;-63
2022/06/20 00:05:55;;;;;;;8.00;5.60;;;;;;;25.91;56.72;98248.25;4924181;28;20023;-63
2022/06/20 00:08:21;;;;;;;8.60;5.55;;;;;;;25.88;56.25;98243.41;4944671;28;20031;-63
2022/06/20 00:10:47;;;;;;;10.75;5.68;;;;;;;25.95;55.12;98237.94;4948639;28;20055;-65
2022/06/20 00:13:24;;;;;;;8.65;5.00;;;;;;;25.92;54.85;98247.22;4952260;28;20027;-65
2022/06/20 00:15:52;;;;;;;7.47;5.28;;;;;;;25.90;56.36;98234.16;4939387;28;20043;-62
2022/06/20 00:18:18;;;;;;;8.55;5.20;;;;;;;25.99;55.02;98233.69;4926029;28;20031;-63
2022/06/20 00:20:43;;;;;;;9.43;5.88;;;;;;;25.79;57.99;98208.50;4943963;28;20287;-63
2022/06/20 00:23:09;;;;;;;8.75;5.53;;;;;;;25.77;57.78;98207.91;4943585;28;20063;-66
2022/06/20 00:25:35;;;;;;;8.80;5.28;;;;;;;25.93;56.88;98235.50;4931890;28;20050;-62
2022/06/20 00:28:01;;;;;;;8.35;5.47;;;;;;;25.96;57.05;98236.88;4922511;28;20191;-62
2022/06/20 00:30:26;;;;;;;8.73;5.10;;;;;;;25.91;54.71;98234.94;4945522;28;20048;-62
2022/06/20 00:32:51;;;;;;;8.13;4.68;;;;;;;25.92;54.83;98231.22;4925849;28;20328;-62
2022/06/20 00:35:17;;;;;;;6.90;4.07;;;;;;;25.87;52.45;98229.31;4937799;28;20521;-65
2022/06/20 00:37:43;;;;;;;7.63;3.80;;;;;;;25.83;51.76;98201.59;4929363;29;20024;-64
2022/06/20 00:40:33;;;;;;;7.68;3.83;;;;;;;26.09;51.23;98223.91;4941198;28;20039;-63
2022/06/20 00:42:59;;;;;;;9.50;3.72;;;;;;;26.21;50.51;98226.41;4943331;28;20034;-65
2022/06/20 00:45:25;;;;;;;6.82;4.13;;;;;;;26.23;50.21;98223.47;4961397;28;20153;-63
2022/06/20 00:47:53;;;;;;;7.30;4.00;;;;;;;26.33;49.93;98230.75;4939156;28;20043;-63
2022/06/20 00:50:22;;;;;;;8.38;4.10;;;;;;;26.34;49.38;98229.69;4957161;28;20032;-62
2022/06/20 00:52:56;;;;;;;6.82;4.90;;;;;;;26.31;49.53;98227.53;4947598;28;20031;-63
2022/06/20 00:55:29;;;;;;;8.25;4.00;;;;;;;26.36;49.53;98232.88;4941854;28;20035;-66
2022/06/20 00:58:00;;;;;;;8.00;4.13;;;;;;;26.26;49.00;98214.97;4963405;28;20029;-63
2022/06/20 01:00:32;;;;;;;7.43;3.88;;;;;;;26.09;49.34;98191.97;4936195;28;20039;-63
2022/06/20 01:03:13;;;;;;;6.30;3.65;;;;;;;26.27;49.30;98216.59;4944444;28;20131;-63
2022/06/20 01:05:44;;;;;;;8.90;3.95;;;;;;;26.28;49.23;98221.66;4953271;28;20032;-63
2022/06/20 01:08:17;;;;;;;6.10;4.15;;;;;;;26.23;49.68;98218.97;4939685;28;20027;-61
2022/06/20 01:10:47;;;;;;;6.38;3.88;;;;;;;26.13;49.00;98216.22;4946086;28;20085;-63
2022/06/20 01:13:17;;;;;;;8.57;3.80;;;;;;;26.02;49.46;98187.91;4930584;28;21544;-63
2022/06/20 01:15:42;;;;;;;;;;;;;;;26.22;49.58;98220.00;4945091;28;20050;-63
2022/06/20 01:18:26;;;;;;;6.00;3.60;;;;;;;26.10;49.34;98187.41;4941122;28;19930;-62
2022/06/20 01:20:54;;;;;;;9.43;3.83;;;;;;;26.31;49.71;98220.34;4916822;29;20109;-63
2022/06/20 01:23:48;;;;;;;7.03;3.85;;;;;;;26.13;49.26;98188.78;4925723;28;20027;-63
2022/06/20 01:26:30;;;;;;;8.68;4.20;;;;;;;26.32;49.69;98221.94;4952582;28;20042;-62
2022/06/20 01:28:59;;;;;;;7.00;3.97;;;;;;;26.34;49.19;98224.34;4940204;28;20066;-62
2022/06/20 01:31:28;;;;;;;7.60;4.10;;;;;;;26.25;49.56;98211.53;4941588;28;20427;-61
2022/06/20 01:33:55;;;;;;;7.70;3.88;;;;;;;26.26;49.52;98217.63;4942168;28;20480;-64
2022/06/20 01:39:06;;;;;;;7.47;4.18;;;;;;;26.31;51.13;98219.56;4934201;28;20042;-62
2022/06/20 01:44:17;;;;;;;7.13;4.32;;;;;;;26.28;53.56;98215.53;4957138;28;20071;-62
2022/06/20 01:46:43;;;;;;;6.63;3.58;;;;;;;26.21;51.61;98218.44;4951338;28;20034;-63
2022/06/20 01:49:19;;;;;;;9.10;3.72;;;;;;;26.18;50.62;98216.25;4941087;28;20027;-62
2022/06/20 01:51:53;;;;;;;8.35;3.70;;;;;;;26.15;50.64;98216.75;4955930;28;20031;-62
2022/06/20 01:54:19;;;;;;;8.63;4.32;;;;;;;26.17;51.00;98219.19;4949658;28;20037;-64
2022/06/20 01:56:46;;;;;;;8.50;4.40;;;;;;;26.16;53.36;98223.72;4940492;28;20032;-62
2022/06/20 01:59:45;;;;;;;6.53;3.95;;;;;;;26.13;53.11;98221.56;4947071;28;20046;-62
2022/06/20 02:02:11;;;;;;;8.35;4.22;;;;;;;26.00;53.69;98222.78;4936814;28;20046;-63
2022/06/20 02:04:37;;;;;;;8.20;4.10;;;;;;;25.97;54.10;98217.97;4949602;28;20027;-63
2022/06/20 02:07:06;;;;;;;7.38;4.28;;;;;;;25.96;54.22;98204.94;4940360;28;20035;-62
2022/06/20 02:09:31;;;;;;;8.07;4.03;;;;;;;25.93;54.52;98192.09;4947519;28;20406;-61
2022/06/20 02:11:58;;;;;;;9.57;4.65;;;;;;;25.94;54.84;98193.69;4929391;28;20053;-63
2022/06/20 02:14:45;;;;;;;6.47;4.10;;;;;;;25.97;53.80;98193.19;4948537;28;20074;-62
2022/06/20 02:17:35;;;;;;;6.85;4.00;;;;;;;25.94;52.95;98183.88;4949171;28;20043;-62
2022/06/20 02:20:02;;;;;;;8.27;3.97;;;;;;;25.88;52.77;98180.34;4946558;28;20034;-63
2022/06/20 02:22:30;;;;;;;8.60;4.20;;;;;;;25.81;53.09;98190.41;4965137;28;20762;-62
2022/06/20 02:25:00;;;;;;;6.47;3.88;;;;;;;25.87;53.07;98197.34;4933433;28;20043;-63
2022/06/20 02:27:40;;;;;;;7.97;4.13;;;;;;;25.81;53.18;98189.56;4945586;28;20050;-62
2022/06/20 02:30:07;;;;;;;8.27;3.92;;;;;;;25.62;53.35;98155.34;4944772;28;20491;-64
2022/06/20 02:32:37;;;;;;;6.88;4.20;;;;;;;25.82;53.01;98189.31;4939884;28;20023;-63
2022/06/20 02:35:05;;;;;;;8.77;3.90;;;;;;;25.80;52.89;98190.66;4939664;28;20023;-64
2022/06/20 02:37:31;;;;;;;7.25;4.05;;;;;;;25.59;52.88;98163.03;4939634;28;20042;-62
2022/06/20 02:40:00;;;;;;;7.03;4.05;;;;;;;25.67;52.70;98186.53;4942832;28;20031;-61
2022/06/20 02:42:30;;;;;;;6.45;3.80;;;;;;;25.59;52.75;98190.47;4959033;28;20043;-63
2022/06/20 02:44:56;;;;;;;8.40;3.80;;;;;;;25.40;53.44;98165.28;4941012;28;20027;-63
2022/06/20 02:47:23;;;;;;;9.60;4.13;;;;;;;25.50;53.77;98195.44;4948121;28;20465;-64
2022/06/20 02:49:50;;;;;;;8.18;3.92;;;;;;;25.42;54.10;98200.41;4941898;28;20034;-64
2022/06/20 02:52:22;;;;;;;6.22;3.80;;;;;;;25.41;54.49;98196.97;4923890;28;20031;-62
2022/06/20 02:54:47;;;;;;;7.45;4.40;;;;;;;25.26;54.97;98191.47;4938687;28;20038;-62
2022/06/20 02:57:17;;;;;;;8.88;4.10;;;;;;;25.11;54.72;98200.84;4941493;28;20408;-62
2022/06/20 02:59:54;;;;;;;8.18;4.30;;;;;;;24.87;54.56;98167.63;4966227;28;20027;-63
2022/06/20 03:02:24;;;;;;;7.32;4.13;;;;;;;24.94;54.52;98202.81;4948980;28;20559;-63
2022/06/20 03:04:50;;;;;;;7.47;4.00;;;;;;;24.77;54.52;98196.72;4931481;28;20527;-62
2022/06/20 03:07:19;;;;;;;6.82;3.90;;;;;;;24.88;54.38;98198.47;4933111;28;20124;-63
2022/06/20 03:09:47;;;;;;;8.27;4.10;;;;;;;24.89;55.32;98192.09;4952959;28;20037;-64
2022/06/20 03:12:14;;;;;;;8.23;4.20;;;;;;;24.75;55.46;98167.72;4923524;28;20138;-63
2022/06/20 03:14:49;;;;;;;8.77;4.45;;;;;;;24.79;55.41;98166.22;4925618;28;20035;-63
2022/06/20 03:17:17;;;;;;;8.25;4.28;;;;;;;24.92;54.93;98192.41;4956684;28;20107;-63
2022/06/20 03:19:54;;;;;;;7.53;4.00;;;;;;;25.00;54.27;98188.50;4937672;28;20031;-62
2022/06/20 03:22:26;;;;;;;7.35;3.92;;;;;;;24.92;54.73;98197.72;4942373;28;20034;-62
2022/06/20 03:24:52;;;;;;;8.77;3.90;;;;;;;24.89;54.61;98190.25;4940665;28;20039;-62
2022/06/20 03:27:27;;;;;;;6.68;4.43;;;;;;;24.79;54.89;98165.38;4934741;28;20028;-63
2022/06/20 03:29:56;;;;;;;11.60;4.18;;;;;;;24.89;54.70;98186.78;4941721;28;20482;-64
2022/06/20 03:32:23;;;;;;;7.40;4.33;;;;;;;24.84;54.99;98184.84;4920909;29;20642;-62
2022/06/20 03:34:49;;;;;;;7.38;4.13;;;;;;;24.95;55.02;98188.44;4952117;28;20338;-63
2022/06/20 03:37:14;;;;;;;8.00;4.22;;;;;;;24.84;55.12;98182.19;4950735;28;20047;-62
2022/06/20 03:39:40;;;;;;;7.53;4.32;;;;;;;24.81;55.25;98188.03;4942007;28;20062;-62
2022/06/20 03:42:06;;;;;;;5.75;4.20;;;;;;;24.85;54.84;98191.00;4940673;28;20036;-61
2022/06/20 03:44:38;;;;;;;5.97;4.03;;;;;;;24.50;55.16;98169.00;4943907;28;20386;-61
2022/06/20 03:47:23;;;;;;;8.68;4.22;;;;;;;24.69;55.44;98196.09;4929178;28;20172;-62
2022/06/20 03:49:59;;;;;;;10.45;4.30;;;;;;;24.63;55.84;98191.78;4942332;28;20019;-63
2022/06/20 03:52:28;;;;;;;8.48;4.47;;;;;;;24.71;55.71;98187.88;4937670;28;20143;-62
2022/06/20 03:55:05;;;;;;;7.45;4.32;;;;;;;24.70;55.79;98197.72;4954270;28;20038;-62
2022/06/20 03:57:52;;;;;;;8.68;4.20;;;;;;;24.69;55.90;98197.97;4937901;28;20038;-62
2022/06/20 04:00:23;;;;;;;8.98;4.25;;;;;;;24.48;56.16;98179.06;4940628;28;20367;-62
2022/06/20 04:03:00;;;;;;;8.10;4.03;;;;;;;24.35;56.45;98174.09;4933822;28;20059;-62
2022/06/20 04:05:30;;;;;;;8.15;4.15;;;;;;;24.31;56.83;98184.44;4934332;28;20039;-62
2022/06/20 04:08:06;;;;;;;10.65;3.97;;;;;;;24.46;56.87;98209.59;4936741;28;20554;-62
2022/06/20 04:10:58;;;;;;;8.77;4.30;;;;;;;24.42;56.68;98211.91;4944897;28;20292;-62
2022/06/20 04:13:25;;;;;;;7.70;4.07;;;;;;;24.37;56.33;98193.28;4951839;28;20715;-63
2022/06/20 04:15:56;;;;;;;8.07;3.92;;;;;;;24.45;56.46;98210.66;4929034;28;20032;-62
2022/06/20 04:18:54;;;;;;;8.88;4.40;;;;;;;24.40;56.74;98213.22;4944546;28;20837;-63
2022/06/20 04:21:26;;;;;;;9.20;3.97;;;;;;;24.33;56.79;98214.22;4944652;28;20042;-63
2022/06/20 04:24:00;;;;;;;10.10;3.88;;;;;;;24.20;56.91;98182.66;4941643;28;20102;-61
2022/06/20 04:26:33;;;;;;;10.27;3.95;;;;;;;24.44;57.15;98214.34;4958505;28;20024;-63
2022/06/20 04:29:12;;;;;;;7.70;3.95;;;;;;;24.36;56.82;98212.91;4945461;28;20023;-61
2022/06/20 04:31:41;;;;;;;;;;;;;;;24.33;56.64;98216.03;4935726;28;20032;-64
2022/06/20 04:34:17;;;;;;;7.70;4.10;;;;;;;24.37;57.45;98217.19;4941451;28;19922;-63
2022/06/20 04:36:50;;;;;;;7.53;4.15;;;;;;;24.32;57.03;98214.44;4929299;28;20035;-63
2022/06/20 04:39:25;;;;;;;7.22;4.50;;;;;;;24.27;57.33;98217.03;4957316;28;20106;-63
2022/06/20 04:42:22;;;;;;;9.15;4.38;;;;;;;24.26;57.45;98215.41;4941489;28;20586;-62
2022/06/20 04:44:57;;;;;;;11.77;4.78;;;;;;;24.16;56.84;98185.00;4932040;28;20040;-65
2022/06/20 04:47:49;;;;;;;8.43;4.22;;;;;;;24.32;57.07;98215.25;4948150;28;20041;-65
2022/06/20 04:50:25;;;;;;;6.72;4.05;;;;;;;24.25;57.23;98203.97;4947103;28;21360;-65
2022/06/20 04:52:52;;;;;;;5.93;3.92;;;;;;;24.27;57.45;98196.56;4952355;28;20042;-64
2022/06/20 04:55:22;;;;;;;11.18;4.45;;;;;;;24.45;57.17;98200.03;4937917;28;20585;-63
2022/06/20 04:57:53;;;;;;;9.05;4.43;;;;;;;24.46;56.81;98193.63;4940695;28;20039;-62
2022/06/20 05:00:21;;;;;;;7.50;4.32;;;;;;;24.39;56.83;98199.16;4924278;28;20395;-62
2022/06/20 05:02:51;;;;;;;6.78;4.25;;;;;;;24.33;57.15;98198.28;4939329;28;20024;-62
2022/06/20 05:05:20;;;;;;;7.88;4.63;;;;;;;24.15;58.58;98166.66;4942512;28;20031;-66
2022/06/20 05:07:46;;;;;;;11.85;5.32;;;;;;;24.31;58.55;98202.19;4952648;28;20122;-61
2022/06/20 05:10:20;;;;;;;9.85;4.40;;;;;;;24.17;58.23;98170.69;4926166;28;20039;-62
2022/06/20 05:13:08;;;;;;;7.53;4.40;;;;;;;24.38;57.97;98197.53;4948996;28;20480;-62
2022/06/20 05:15:41;;;;;;;12.07;4.95;;;;;;;24.24;58.78;98194.44;4954022;28;20065;-64
2022/06/20 05:18:29;;;;;;;9.63;4.57;;;;;;;24.30;58.66;98193.44;4953835;28;20027;-61
2022/06/20 05:21:03;;;;;;;12.43;4.80;;;;;;;24.30;59.11;98190.78;4942560;28;20117;-62
2022/06/20 05:23:37;;;;;;;10.00;4.85;;;;;;;24.39;59.46;98199.16;4943267;28;20027;-63
2022/06/20 05:26:03;;;;;;;11.60;5.30;;;;;;;24.37;59.63;98201.25;4902044;28;20074;-62
2022/06/20 05:28:29;;;;;;;10.23;4.47;;;;;;;24.10;59.93;98164.72;4949113;28;20130;-63
2022/06/20 05:30:55;;;;;;;6.78;4.40;;;;;;;24.33;60.17;98200.94;4946448;28;20042;-62
2022/06/20 05:33:26;;;;;;;9.30;4.47;;;;;;;24.38;59.85;98203.63;4931655;28;20413;-61
2022/06/20 05:35:57;;;;;;;9.82;5.13;;;;;;;24.44;59.72;98201.88;4943530;28;20411;-61
2022/06/20 05:38:47;;;;;;;9.60;5.00;;;;;;;24.43;59.08;98200.25;4939827;28;20039;-66
2022/06/20 05:44:41;;;;;;;12.32;5.63;;;;;;;24.53;58.70;98210.25;4945484;28;20074;-63
2022/06/20 05:47:12;;;;;;;8.77;4.70;;;;;;;24.48;59.71;98196.88;4933207;28;20069;-62
2022/06/20 05:49:45;;;;;;;12.13;5.43;;;;;;;24.33;59.69;98192.13;4939931;28;20035;-62
2022/06/20 05:52:16;;;;;;;11.73;5.45;;;;;;;24.54;59.64;98202.03;4939153;28;20146;-60
2022/06/20 05:54:48;;;;;;;9.82;5.00;;;;;;;24.55;59.85;98211.63;4953340;28;20031;-61
2022/06/20 05:57:16;;;;;;;14.43;5.70;;;;;;;24.54;59.58;98201.25;4944033;28;20035;-64
2022/06/20 05:59:46;;;;;;;12.02;5.13;;;;;;;24.42;60.37;98205.81;4947957;28;20033;-61
2022/06/20 06:02:14;;;;;;;11.93;4.95;;;;;;;24.55;59.49;98214.28;4937655;28;20034;-63
2022/06/20 06:04:45;;;;;;;10.35;4.93;;;;;;;24.60;60.31;98202.91;4945705;28;20592;-63
2022/06/20 06:07:18;;;;;;;9.00;5.15;;;;;;;24.54;60.57;98203.91;4936979;28;20172;-61
2022/06/20 06:10:05;;;;;;;8.93;5.30;;;;;;;24.60;60.18;98213.53;4929119;28;20036;-62
2022/06/20 06:12:40;;;;;;;10.45;5.10;;;;;;;24.62;59.68;98211.44;4949797;28;20082;-62
2022/06/20 06:15:21;;;;;;;9.02;5.38;;;;;;;24.30;59.95;98164.22;4938919;28;20031;-62
2022/06/20 06:17:52;;;;;;;11.23;5.32;;;;;;;24.63;60.08;98210.38;4958211;28;20033;-60
2022/06/20 06:20:22;;;;;;;8.32;5.63;;;;;;;24.60;60.23;98215.41;4947841;28;20039;-62
2022/06/20 06:22:51;;;;;;;10.45;5.40;;;;;;;24.46;60.41;98209.59;4956785;28;20034;-62
2022/06/20 06:25:30;;;;;;;9.98;5.20;;;;;;;24.61;60.49;98206.38;4941776;28;20035;-60
2022/06/20 06:28:16;;;;;;;7.63;5.40;;;;;;;24.66;60.31;98214.41;4939818;28;20035;-60
2022/06/20 06:34:13;;;;;;;8.45;5.30;;;;;;;24.77;59.90;98210.84;4934299;28;20129;-61
2022/06/20 06:36:43;;;;;;;11.23;6.18;;;;;;;24.79;59.66;98206.09;4940846;28;20113;-61
2022/06/20 06:39:15;;;;;;;9.43;5.45;;;;;;;24.71;60.77;98180.72;4950001;28;20283;-61
2022/06/20 06:41:48;;;;;;;8.30;4.60;;;;;;;24.93;59.63;98207.31;4940912;28;20085;-60
2022/06/20 06:44:19;;;;;;;12.63;5.72;;;;;;;25.01;60.04;98214.06;4948744;28;20035;-63
2022/06/20 06:46:48;;;;;;;9.50;5.43;;;;;;;24.87;57.86;98188.88;4938266;28;20031;-60
2022/06/20 06:49:34;;;;;;;9.10;4.80;;;;;;;25.16;58.10;98218.75;4938307;28;20027;-62
2022/06/20 06:52:06;;;;;;;7.75;4.90;;;;;;;24.93;58.20;98188.72;4915776;28;20050;-62
2022/06/20 06:54:40;;;;;;;13.80;4.95;;;;;;;25.28;57.80;98224.78;4944994;28;20066;-62
2022/06/20 06:57:11;;;;;;;9.32;4.55;;;;;;;25.19;57.47;98190.81;4945436;28;20035;-62
2022/06/20 06:59:44;;;;;;;17.02;6.03;;;;;;;25.43;58.01;98218.00;4942535;28;20052;-63
2022/06/20 07:02:17;;;;;;;6.78;4.47;;;;;;;25.42;57.18;98222.50;4940530;28;20035;-63
2022/06/20 07:05:01;;;;;;;10.60;4.82;;;;;;;25.48;57.30;98221.50;4951261;28;20027;-62
2022/06/20 07:07:39;;;;;;;8.70;4.88;;;;;;;25.50;57.01;98198.13;4938378;28;20105;-60
2022/06/20 07:10:07;;;;;;;8.30;4.82;;;;;;;25.76;56.44;98222.28;4954164;28;20051;-61
2022/06/20 07:12:35;;;;;;;7.60;4.97;;;;;;;25.68;56.26;98202.28;4924734;29;20091;-63
2022/06/20 07:15:12;;;;;;;7.75;5.05;;;;;;;25.97;56.32;98219.84;4940807;28;20069;-62
2022/06/20 07:17:51;;;;;;;7.65;4.78;;;;;;;25.99;56.52;98215.06;4941334;28;20062;-62
2022/06/20 07:20:18;;;;;;;8.33;5.27;;;;;;;25.96;55.28;98213.72;4935945;28;20675;-64
2022/06/20 07:22:44;;;;;;;11.20;5.40;;;;;;;25.89;55.48;98189.91;4935785;28;20505;-61
2022/06/20 07:25:18;;;;;;;9.73;4.95;;;;;;;26.07;55.39;98219.91;4929898;28;20035;-60
2022/06/20 07:27:49;;;;;;;7.55;4.80;;;;;;;25.90;54.91;98196.84;4921847;29;20062;-62
2022/06/20 07:30:24;;;;;;;8.43;4.90;;;;;;;26.08;54.27;98209.00;4936856;28;20090;-65
2022/06/20 07:32:55;;;;;;;8.85;4.55;;;;;;;26.03;53.51;98200.97;4922925;28;20327;-61
2022/06/20 07:35:24;;;;;;;8.63;4.32;;;;;;;25.90;52.88;98180.06;4953688;28;20063;-61
2022/06/20 07:37:57;;;;;;;;;;;;;;;25.92;51.59;98214.44;4955490;28;20466;-60
2022/06/20 07:40:22;;;;;;;6.97;4.30;;;;;;;26.03;51.38;98213.47;4957110;28;19922;-60
2022/06/20 07:43:25;;;;;;;10.00;4.03;;;;;;;26.71;48.59;98210.22;4944894;28;20035;-61
2022/06/20 07:45:52;;;;;;;8.30;3.90;;;;;;;27.18;46.49;98211.97;4916202;29;20036;-60
2022/06/20 07:48:33;;;;;;;5.93;3.38;;;;;;;27.45;43.32;98203.00;4922365;28;20537;-61
2022/06/20 07:51:18;;;;;;;6.10;3.70;;;;;;;27.76;43.42;98196.63;4954964;28;20031;-63
2022/06/20 07:53:46;;;;;;;9.00;3.50;;;;;;;28.10;40.60;98182.72;4954314;28;20094;-64
2022/06/20 07:56:17;;;;;;;8.20;3.75;;;;;;;28.18;41.13;98166.16;4957784;28;20038;-60
2022/06/20 07:58:52;;;;;;;7.63;3.65;;;;;;;28.61;40.68;98186.38;4944519;28;20028;-62
2022/06/20 08:01:23;;;;;;;7.53;3.70;;;;;;;28.65;39.81;98190.09;4955149;28;20027;-62
2022/06/20 08:03:53;;;;;;;7.82;3.83;;;;;;;28.95;39.69;98184.63;4939459;28;20125;-62
2022/06/20 08:06:24;;;;;;;6.05;3.85;;;;;;;28.97;40.94;98194.25;4932658;28;20122;-61
2022/06/20 08:08:57;;;;;;;8.00;3.90;;;;;;;28.61;41.73;98191.75;4934178;28;20344;-61
2022/06/20 08:11:42;;;;;;;7.25;3.63;;;;;;;28.83;42.51;98183.34;4940562;28;20027;-61
2022/06/20 08:14:24;;;;;;;7.78;3.80;;;;;;;29.04;40.80;98166.13;4940607;28;20159;-60
2022/06/20 08:16:53;;;;;;;8.35;3.40;;;;;;;29.13;38.20;98140.38;4943377;28;20023;-61
2022/06/20 08:19:19;;;;;;;7.43;3.50;;;;;;;29.56;36.84;98163.94;4945655;28;20035;-61
2022/06/20 08:21:47;;;;;;;7.85;3.50;;;;;;;29.87;36.31;98166.38;4941889;28;20502;-62
2022/06/20 08:24:38;;;;;;;7.60;3.35;;;;;;;29.98;36.10;98167.09;4925048;28;20042;-60
2022/06/20 08:27:08;;;;;;;9.30;3.70;;;;;;;29.78;36.97;98162.72;4934354;28;21011;-63
2022/06/20 08:29:33;;;;;;;7.28;3.67;;;;;;;29.86;37.06;98165.59;4938061;28;20035;-64
2022/06/20 08:32:09;;;;;;;8.00;4.20;;;;;;;30.05;37.61;98157.63;4939268;28;20027;-61
2022/06/20 08:34:41;;;;;;;9.40;4.10;;;;;;;30.28;37.46;98165.97;4934286;28;20274;-60
2022/06/20 08:37:33;;;;;;;6.97;4.22;;;;;;;30.29;37.55;98160.34;4921040;28;20039;-60
2022/06/20 08:40:07;;;;;;;7.85;4.32;;;;;;;30.20;38.18;98155.88;4933068;28;20023;-61
2022/06/20 08:42:46;;;;;;;8.52;4.28;;;;;;;30.43;38.04;98149.75;4955330;28;20039;-61
2022/06/20 08:45:36;;;;;;;6.43;3.97;;;;;;;30.70;37.76;98155.59;4940659;28;20082;-64
2022/06/20 08:48:10;;;;;;;9.05;4.05;;;;;;;31.21;37.33;98155.75;4938198;28;20043;-63
2022/06/20 08:51:27;;;;;;;8.80;4.15;;;;;;;31.52;36.24;98143.75;4953113;28;20027;-62
2022/06/20 08:54:22;;;;;;;8.23;4.22;;;;;;;31.44;35.91;98145.19;4927888;28;20047;-62
2022/06/20 08:57:11;;;;;;;10.25;4.80;;;;;;;31.89;35.56;98145.56;4940676;28;20031;-62
2022/06/20 08:59:59;;;;;;;8.40;4.20;;;;;;;31.99;36.24;98123.84;4944844;28;20106;-61
2022/06/20 09:02:43;;;;;;;6.97;3.92;;;;;;;32.04;34.82;98141.81;4947537;28;20041;-59
2022/06/20 09:05:21;;;;;;;21.77;5.82;;;;;;;31.95;34.56;98117.47;4944722;28;20119;-60
2022/06/20 09:07:49;;;;;;;9.57;4.45;;;;;;;32.27;33.99;98142.72;4948061;28;20037;-59
2022/06/20 09:10:33;;;;;;;8.57;5.07;;;;;;;32.27;33.92;98140.03;4946333;28;20098;-61
2022/06/20 09:13:47;;;;;;;10.57;4.57;;;;;;;32.57;33.83;98140.53;4940700;28;20026;-61
2022/06/20 09:16:30;;;;;;;12.57;4.57;;;;;;;32.52;33.54;98140.63;4941048;28;20171;-59
2022/06/20 09:19:35;;;;;;;8.70;5.03;;;;;;;32.63;33.30;98130.50;4940965;28;20031;-64
2022/06/20 09:22:06;;;;;;;7.82;4.47;;;;;;;32.40;33.54;98134.94;4941247;28;20050;-60
2022/06/20 09:24:34;;;;;;;8.27;4.32;;;;;;;32.29;33.91;98132.47;4947075;28;20023;-60
2022/06/20 09:27:16;;;;;;;10.07;4.65;;;;;;;32.32;32.98;98129.19;4935902;28;20376;-60
2022/06/20 09:30:06;;;;;;;10.82;4.15;;;;;;;32.44;33.82;98131.38;4938787;28;20118;-63
2022/06/20 09:32:38;;;;;;;8.48;4.43;;;;;;;32.87;32.68;98106.00;4957265;28;20032;-62
2022/06/20 09:35:32;;;;;;;11.77;4.70;;;;;;;33.02;32.22;98121.84;4941781;28;20582;-60
2022/06/20 09:37:57;;;;;;;8.52;4.22;;;;;;;33.05;32.39;98113.13;4930234;28;20047;-63
2022/06/20 09:40:38;;;;;;;7.57;3.90;;;;;;;33.05;31.96;98107.75;4949395;28;20035;-62
2022/06/20 09:43:21;;;;;;;7.20;4.40;;;;;;;32.90;31.38;98106.19;4937673;28;21064;-62
2022/06/20 09:46:03;;;;;;;9.02;4.57;;;;;;;33.33;32.18;98113.03;4942556;28;20504;-60
2022/06/20 09:48:37;;;;;;;8.07;3.95;;;;;;;33.04;32.94;98106.16;4941065;28;20194;-61
2022/06/20 09:51:15;;;;;;;8.93;3.92;;;;;;;33.41;31.31;98101.53;4941057;28;20114;-64
2022/06/20 09:54:01;;;;;;;8.02;4.38;;;;;;;33.51;31.91;98108.56;4942737;28;20027;-64
2022/06/20 09:59:58;;;;;;;7.95;3.90;;;;;;;32.86;32.38;98094.44;4933041;28;20130;-63
2022/06/20 10:02:42;;;;;;;7.18;4.05;;;;;;;32.86;32.51;98099.03;4936998;28;20548;-63
2022/06/20 10:05:35;;;;;;;7.93;4.18;;;;;;;32.75;31.29;98096.56;4941725;28;20023;-60
2022/06/20 10:11:31;;;;;;;9.27;4.50;;;;;;;32.32;33.86;98090.72;4933641;28;20069;-61
2022/06/20 10:14:18;;;;;;;10.48;4.10;;;;;;;31.72;33.98;98086.19;4930272;28;20474;-60
2022/06/20 10:16:46;;;;;;;7.38;4.45;;;;;;;31.66;33.25;98085.50;4950789;28;20036;-61
2022/06/20 10:19:24;;;;;;;10.18;4.70;;;;;;;31.56;34.40;98056.09;4944295;28;20402;-61
2022/06/20 10:25:21;;;;;;;8.18;4.25;;;;;;;30.97;35.42;98074.50;4867331;28;20109;-61
2022/06/20 10:27:58;;;;;;;8.38;4.15;;;;;;;30.84;35.27;98078.69;4939431;28;20454;-61
2022/06/20 10:30:38;;;;;;;9.52;4.35;;;;;;;30.88;35.33;98065.47;4952472;28;20152;-62
2022/06/20 10:33:26;;;;;;;9.02;4.45;;;;;;;30.92;35.65;98066.50;4923225;28;20118;-61
2022/06/20 10:35:59;;;;;;;9.03;4.57;;;;;;;31.09;33.88;98056.06;4939328;28;21198;-61
2022/06/20 10:38:47;;;;;;;7.60;4.50;;;;;;;30.86;34.80;98055.81;4942573;28;20290;-62
2022/06/20 10:41:31;;;;;;;10.65;4.68;;;;;;;30.80;35.00;98062.34;4942836;28;20049;-61
2022/06/20 10:47:22;;;;;;;7.60;4.40;;;;;;;30.78;35.91;98055.69;4922913;28;20859;-62
2022/06/20 10:50:19;;;;;;;8.00;4.53;;;;;;;30.80;35.11;98062.34;4948317;28;20097;-62
2022/06/20 10:53:23;;;;;;;8.15;4.50;;;;;;;30.88;34.92;98057.44;4951659;28;20110;-61
2022/06/20 10:56:20;;;;;;;9.18;4.40;;;;;;;31.00;33.78;98057.81;4939580;28;20023;-61
2022/06/20 10:59:29;;;;;;;10.00;5.47;;;;;;;30.82;34.85;98062.88;4884749;28;20039;-61
2022/06/20 11:05:47;;;;;;;7.97;4.22;;;;;;;30.82;35.31;98064.75;4933106;28;20553;-62
2022/06/20 11:08:32;;;;;;;7.10;4.10;;;;;;;30.89;35.02;98053.66;4936600;28;20045;-64
2022/06/20 11:11:07;;;;;;;9.88;4.35;;;;;;;30.95;34.60;98047.16;4933021;28;20572;-61
2022/06/20 11:13:48;;;;;;;9.02;4.38;;;;;;;31.07;34.70;98044.81;4874672;28;20058;-62
2022/06/20 11:16:28;;;;;;;7.95;4.15;;;;;;;31.06;34.51;98042.44;4938416;28;20102;-61
2022/06/20 11:19:09;;;;;;;6.72;4.25;;;;;;;30.85;34.68;98023.94;4941950;28;20020;-64
2022/06/20 11:21:47;;;;;;;7.80;4.47;;;;;;;31.02;34.47;98043.00;4934587;28;20042;-61
2022/06/20 11:24:21;;;;;;;8.30;4.20;;;;;;;30.87;34.70;98019.06;4939489;28;20047;-61
2022/06/20 11:27:14;;;;;;;10.02;4.57;;;;;;;31.03;33.91;98041.91;4951519;28;20112;-61
2022/06/20 11:29:51;;;;;;;9.00;4.53;;;;;;;30.92;34.54;98045.03;4941331;28;20011;-64
2022/06/20 11:32:47;;;;;;;9.82;4.40;;;;;;;30.95;34.62;98031.84;4939770;28;20039;-61
2022/06/20 11:35:22;;;;;;;9.25;4.40;;;;;;;30.92;34.53;98026.25;4954547;28;20110;-62
2022/06/20 11:37:54;;;;;;;9.98;4.70;;;;;;;30.99;34.21;98030.16;4940687;28;20138;-62
2022/06/20 11:40:32;;;;;;;10.10;5.00;;;;;;;31.09;34.84;98031.91;4958406;28;20055;-62
2022/06/20 11:43:27;;;;;;;11.45;4.78;;;;;;;31.13;33.84;98024.84;4942457;28;20037;-63
2022/06/20 11:46:06;;;;;;;9.57;5.40;;;;;;;30.94;33.67;97991.88;4936709;28;20093;-60
2022/06/20 11:48:46;;;;;;;9.57;4.47;;;;;;;30.90;34.40;97993.53;4949175;28;20050;-63
2022/06/20 11:51:17;;;;;;;11.38;5.15;;;;;;;31.06;33.98;98020.94;4936172;28;20041;-62
2022/06/20 11:53:42;;;;;;;11.95;4.78;;;;;;;31.19;33.80;98026.34;4937114;28;20471;-60
2022/06/20 11:56:27;;;;;;;8.13;4.53;;;;;;;31.20;33.48;98024.47;4941485;28;20037;-60
2022/06/20 11:59:14;;;;;;;9.02;4.85;;;;;;;31.20;33.44;98011.84;4941661;28;20041;-61
2022/06/20 12:01:44;;;;;;;7.65;4.65;;;;;;;31.24;33.11;98014.72;4940644;28;20055;-63
2022/06/20 12:07:36;;;;;;;9.55;5.30;;;;;;;31.21;33.40;98002.72;4934817;28;22703;-64
2022/06/20 12:10:40;;;;;;;9.27;5.10;;;;;;;31.39;33.50;98006.41;4931312;28;20031;-62
2022/06/20 12:13:36;;;;;;;7.15;4.63;;;;;;;31.45;32.02;97999.03;4921535;28;20104;-63
2022/06/20 12:16:35;;;;;;;8.55;4.93;;;;;;;31.33;32.81;97988.00;4959100;28;20035;-63
2022/06/20 12:25:19;;;;;;;8.68;4.50;;;;;;;31.62;32.47;97993.16;4949230;28;20050;-59
2022/06/20 12:27:46;;;;;;;9.73;5.07;;;;;;;31.60;31.79;97985.38;4922449;28;20031;-59
2022/06/20 12:30:14;;;;;;;9.30;4.70;;;;;;;31.64;32.15;97985.56;4956428;28;20039;-66
2022/06/20 12:32:41;;;;;;;8.52;4.70;;;;;;;31.63;31.91;97975.13;4925745;28;20027;-60
2022/06/20 12:35:36;;;;;;;10.45;5.68;;;;;;;31.73;31.38;97973.03;4938083;28;20090;-64
2022/06/20 12:38:34;;;;;;;7.95;4.50;;;;;;;31.67;31.19;97979.63;4943453;28;20135;-60
2022/06/20 12:41:08;;;;;;;9.02;4.80;;;;;;;31.71;31.68;97980.59;4937236;28;20074;-63
2022/06/20 12:43:56;;;;;;;12.55;5.35;;;;;;;31.74;31.18;97968.44;4946796;28;20114;-60
2022/06/20 12:46:21;;;;;;;10.88;5.05;;;;;;;31.71;31.60;97979.81;4948644;28;20601;-62
2022/06/20 12:49:05;;;;;;;10.47;5.20;;;;;;;31.74;31.09;97963.88;4942312;28;20063;-61